Time;durP1;ratioP1;P1;durP2;ratioP2;P2;SDS_P1;SDS_P2;PMS_P1;PMS_P2;Temp;Humidity;BMP_temperature;BMP_pressure;BME280_temperature;BME280_humidity;BME280_pressure;Samples;Min_cycle;Max_cycle;Signal;HPM_P1;HPM_P2
2024/01/25 00:01:45;;;;;;;30.20;4.88;;;8.30;99.90;;;;;;5013264;28;20046;-62
2024/01/25 00:04:11;;;;;;;31.48;5.38;;;8.30;99.90;;;;;;5012179;28;20383;-62
2024/01/25 00:06:36;;;;;;;29.23;5.32;;;8.30;99.90;;;;;;5008234;28;20038;-62
2024/01/25 00:09:04;;;;;;;30.45;5.43;;;8.30;99.90;;;;;;5012307;28;20478;-62
2024/01/25 00:11:31;;;;;;;22.77;4.70;;;8.30;99.90;;;;;;5011739;28;20463;-62
2024/01/25 00:13:57;;;;;;;25.92;5.00;;;8.30;99.90;;;;;;5009920;28;20457;-62
2024/01/25 00:16:23;;;;;;;25.42;4.80;;;8.30;99.90;;;;;;5012931;28;20030;-62
2024/01/25 00:18:49;;;;;;;27.55;4.32;;;8.20;99.90;;;;;;5007941;28;20042;-62
2024/01/25 00:21:14;;;;;;;34.42;5.38;;;8.20;99.90;;;;;;5012003;28;20056;-62
2024/01/25 00:23:40;;;;;;;31.48;4.88;;;8.20;99.90;;;;;;5013311;28;20049;-62
2024/01/25 00:26:05;;;;;;;30.17;5.60;;;8.10;99.90;;;;;;5012558;28;20038;-62
2024/01/25 00:28:33;;;;;;;34.58;5.25;;;8.10;99.90;;;;;;5008333;28;20533;-62
2024/01/25 00:30:59;;;;;;;27.30;5.18;;;8.10;99.90;;;;;;5011592;28;20038;-62
2024/01/25 00:33:25;;;;;;;26.77;5.53;;;8.10;99.90;;;;;;5009081;28;20095;-62
2024/01/25 00:35:50;;;;;;;31.70;5.07;;;8.10;99.90;;;;;;5010870;28;20037;-62
2024/01/25 00:38:16;;;;;;;29.65;5.97;;;8.10;99.90;;;;;;5012389;28;20044;-62
2024/01/25 00:40:42;;;;;;;25.63;5.22;;;8.00;99.90;;;;;;5012870;28;20482;-62
2024/01/25 00:43:09;;;;;;;33.63;4.85;;;8.00;99.90;;;;;;5012584;28;20123;-62
2024/01/25 00:45:34;;;;;;;25.58;4.75;;;8.00;99.90;;;;;;5012545;28;20127;-62
2024/01/25 00:48:00;;;;;;;28.35;5.38;;;8.00;99.90;;;;;;5010778;28;20510;-62
2024/01/25 00:50:27;;;;;;;31.92;5.35;;;8.00;99.90;;;;;;5011996;28;20395;-62
2024/01/25 00:52:53;;;;;;;26.45;4.60;;;7.90;99.90;;;;;;5009402;28;20184;-62
2024/01/25 00:55:19;;;;;;;26.17;4.38;;;7.90;99.90;;;;;;5012453;28;20692;-62
2024/01/25 00:57:45;;;;;;;29.80;4.93;;;7.90;99.90;;;;;;5009425;28;20043;-62
2024/01/25 01:00:11;;;;;;;23.60;4.47;;;7.80;99.90;;;;;;5010288;28;20057;-62
2024/01/25 01:02:42;;;;;;;32.10;5.38;;;7.80;99.90;;;;;;5005524;28;20047;-62
2024/01/25 01:05:08;;;;;;;27.27;4.90;;;7.80;99.90;;;;;;5012220;28;20130;-62
2024/01/25 01:07:34;;;;;;;32.08;5.65;;;7.80;99.90;;;;;;5009873;28;20478;-62
2024/01/25 01:10:00;;;;;;;30.13;4.82;;;7.80;99.90;;;;;;5012149;28;20029;-62
2024/01/25 01:12:26;;;;;;;28.60;5.75;;;7.70;99.90;;;;;;5008831;28;20057;-62
2024/01/25 01:14:51;;;;;;;33.17;4.93;;;7.70;99.90;;;;;;5009100;28;20034;-62
2024/01/25 01:17:18;;;;;;;24.00;5.53;;;7.70;99.90;;;;;;5012302;28;20044;-62
2024/01/25 01:19:44;;;;;;;32.80;4.90;;;7.60;99.90;;;;;;5012263;28;20466;-62
2024/01/25 01:22:10;;;;;;;28.63;5.93;;;7.50;99.90;;;;;;5008955;28;20034;-62
2024/01/25 01:24:35;;;;;;;32.17;5.35;;;7.50;99.90;;;;;;5010286;28;20098;-62
2024/01/25 01:27:02;;;;;;;36.58;5.40;;;7.50;99.90;;;;;;5011961;28;20073;-62
2024/01/25 01:29:27;;;;;;;26.63;4.82;;;7.40;99.90;;;;;;5011736;28;20037;-62
2024/01/25 01:31:53;;;;;;;31.90;5.93;;;7.40;99.90;;;;;;5008666;28;20478;-62
2024/01/25 01:34:19;;;;;;;34.30;5.82;;;7.30;99.90;;;;;;5010108;28;20116;-62
2024/01/25 01:36:44;;;;;;;30.02;5.10;;;7.30;99.90;;;;;;5011953;28;20041;-62
2024/01/25 01:39:10;;;;;;;31.50;6.30;;;7.30;99.90;;;;;;5010916;28;20038;-62
2024/01/25 01:41:36;;;;;;;34.78;5.03;;;7.30;99.90;;;;;;5008794;28;20042;-62
2024/01/25 01:44:02;;;;;;;34.78;5.75;;;7.20;99.90;;;;;;5010903;28;20064;-62
2024/01/25 01:46:36;;;;;;;36.40;6.07;;;7.20;99.90;;;;;;5011036;28;20038;-62
2024/01/25 01:49:12;;;;;;;27.33;4.85;;;7.20;99.90;;;;;;5003240;28;20457;-62
2024/01/25 01:51:39;;;;;;;23.35;4.70;;;7.20;99.90;;;;;;5011031;28;20091;-62
2024/01/25 01:54:09;;;;;;;28.75;5.95;;;7.20;99.90;;;;;;5011006;28;20045;-62
2024/01/25 01:56:35;;;;;;;28.85;5.20;;;7.20;99.90;;;;;;5011029;28;20560;-62
2024/01/25 01:59:08;;;;;;;39.97;6.22;;;7.10;99.90;;;;;;5011548;28;20042;-62
2024/01/25 02:01:33;;;;;;;25.40;5.47;;;7.10;99.90;;;;;;5011541;28;20505;-62
2024/01/25 02:03:59;;;;;;;30.95;5.13;;;7.10;99.90;;;;;;5011102;28;20041;-62
2024/01/25 02:06:25;;;;;;;29.98;5.35;;;7.00;99.90;;;;;;5011389;28;20050;-62
2024/01/25 02:08:52;;;;;;;32.38;6.38;;;7.00;99.90;;;;;;5007701;28;20055;-62
2024/01/25 02:11:19;;;;;;;28.45;5.03;;;7.00;99.90;;;;;;5010059;28;20139;-62
2024/01/25 02:13:45;;;;;;;33.05;5.55;;;6.90;99.90;;;;;;5010404;28;20103;-62
2024/01/25 02:16:10;;;;;;;37.75;6.53;;;6.80;99.90;;;;;;5006139;28;20499;-62
2024/01/25 02:18:36;;;;;;;32.55;5.50;;;6.90;99.90;;;;;;5010233;28;20045;-62
2024/01/25 02:21:02;;;;;;;34.03;5.25;;;6.90;99.90;;;;;;5011010;28;20458;-62
2024/01/25 02:23:28;;;;;;;28.77;5.40;;;6.90;99.90;;;;;;5007687;28;20076;-62
2024/01/25 02:25:53;;;;;;;29.25;5.55;;;6.80;99.90;;;;;;5010988;28;20046;-62
2024/01/25 02:28:19;;;;;;;32.65;5.50;;;6.80;99.90;;;;;;5010230;28;20065;-62
2024/01/25 02:30:45;;;;;;;31.50;5.30;;;6.80;99.90;;;;;;5010503;28;20041;-62
2024/01/25 02:33:10;;;;;;;30.00;5.25;;;6.70;99.90;;;;;;5008628;28;20037;-62
2024/01/25 02:35:37;;;;;;;37.10;6.65;;;6.70;99.90;;;;;;5010586;28;20033;-62
2024/01/25 02:38:03;;;;;;;33.13;5.63;;;6.70;99.90;;;;;;5009312;28;20029;-62
2024/01/25 02:40:29;;;;;;;33.08;5.60;;;6.70;99.90;;;;;;5011088;28;20037;-62
2024/01/25 02:42:56;;;;;;;31.13;5.60;;;6.70;99.90;;;;;;5010732;28;20050;-62
2024/01/25 02:45:22;;;;;;;31.45;4.97;;;6.60;99.90;;;;;;5014315;28;20399;-62
2024/01/25 02:47:48;;;;;;;33.17;5.05;;;6.60;99.90;;;;;;5014420;28;20030;-62
2024/01/25 02:50:14;;;;;;;27.15;5.53;;;6.60;99.90;;;;;;5015062;28;20037;-62
2024/01/25 02:52:40;;;;;;;31.67;5.50;;;6.60;99.90;;;;;;5014485;28;20045;-62
2024/01/25 02:55:06;;;;;;;25.85;6.07;;;6.60;99.90;;;;;;5011388;28;20038;-62
2024/01/25 02:57:31;;;;;;;34.55;6.15;;;6.60;99.90;;;;;;5012587;28;20053;-62
2024/01/25 02:59:57;;;;;;;36.70;5.65;;;6.50;99.90;;;;;;5012860;28;20442;-62
2024/01/25 03:02:23;;;;;;;30.95;5.93;;;6.50;99.90;;;;;;5011535;28;20033;-62
2024/01/25 03:04:49;;;;;;;32.67;6.05;;;6.40;99.90;;;;;;5014172;28;20038;-62
2024/01/25 03:07:14;;;;;;;37.95;6.03;;;6.40;99.90;;;;;;5009861;28;20041;-62
2024/01/25 03:09:40;;;;;;;28.92;5.15;;;6.30;99.90;;;;;;5013965;28;20038;-62
2024/01/25 03:12:06;;;;;;;31.60;6.53;;;6.40;99.90;;;;;;5014297;28;20068;-62
2024/01/25 03:14:31;;;;;;;33.13;6.00;;;6.40;99.90;;;;;;5013618;28;20073;-62
2024/01/25 03:16:57;;;;;;;36.67;5.45;;;6.30;99.90;;;;;;5013583;28;20532;-62
2024/01/25 03:19:27;;;;;;;35.70;5.80;;;6.30;99.90;;;;;;5013859;28;20490;-62
2024/01/25 03:21:54;;;;;;;30.10;5.18;;;6.30;99.90;;;;;;5013768;28;20080;-62
2024/01/25 03:24:20;;;;;;;33.88;5.55;;;6.30;99.90;;;;;;5014250;28;20056;-62
2024/01/25 03:26:46;;;;;;;28.98;5.88;;;6.20;99.90;;;;;;5012871;28;20049;-62
2024/01/25 03:29:12;;;;;;;30.05;5.03;;;6.20;99.90;;;;;;5012996;28;20129;-62
2024/01/25 03:31:38;;;;;;;34.88;6.05;;;6.30;99.90;;;;;;5011277;28;20126;-62
2024/01/25 03:34:04;;;;;;;34.83;6.10;;;6.20;99.90;;;;;;5014019;28;20060;-62
2024/01/25 03:36:31;;;;;;;35.50;6.05;;;6.20;99.90;;;;;;5013291;28;20033;-62
2024/01/25 03:38:56;;;;;;;40.90;5.07;;;6.20;99.90;;;;;;5013987;28;20088;-62
2024/01/25 03:41:23;;;;;;;33.15;5.57;;;6.20;99.90;;;;;;5012639;28;20042;-62
2024/01/25 03:43:49;;;;;;;30.67;5.22;;;6.10;99.90;;;;;;5013910;28;20460;-62
2024/01/25 03:46:15;;;;;;;39.38;6.78;;;6.10;99.90;;;;;;5010989;28;20034;-62
2024/01/25 03:48:40;;;;;;;31.98;7.07;;;6.10;99.90;;;;;;5013973;28;20085;-62
2024/01/25 03:51:06;;;;;;;32.80;5.50;;;6.00;99.90;;;;;;5012975;28;20403;-62
2024/01/25 03:53:32;;;;;;;29.63;5.20;;;6.10;99.90;;;;;;5013646;28;20046;-62
2024/01/25 03:55:58;;;;;;;31.52;5.70;;;6.00;99.90;;;;;;5010805;28;20037;-62
2024/01/25 03:58:24;;;;;;;30.85;5.88;;;6.00;99.90;;;;;;5012457;28;20035;-62
2024/01/25 04:00:49;;;;;;;32.75;5.53;;;6.00;99.90;;;;;;5013581;28;20123;-62
2024/01/25 04:03:15;;;;;;;39.60;6.32;;;5.90;99.90;;;;;;5012672;28;20041;-62
2024/01/25 04:05:41;;;;;;;30.27;5.85;;;5.90;99.90;;;;;;5010787;28;20041;-62
2024/01/25 04:08:06;;;;;;;30.40;5.57;;;5.90;99.90;;;;;;5010456;28;20120;-62
2024/01/25 04:10:33;;;;;;;40.38;6.63;;;6.00;99.90;;;;;;5013053;28;20100;-62
2024/01/25 04:13:00;;;;;;;41.15;5.57;;;5.90;99.90;;;;;;5012774;28;20034;-62
2024/01/25 04:15:26;;;;;;;32.72;5.90;;;5.90;99.90;;;;;;5009016;28;20718;-62
2024/01/25 04:17:53;;;;;;;30.25;5.55;;;5.90;99.90;;;;;;4992039;28;20434;-62
2024/01/25 04:20:19;;;;;;;34.53;5.85;;;5.80;99.90;;;;;;5012602;28;20040;-62
2024/01/25 04:22:44;;;;;;;28.88;5.70;;;5.80;99.90;;;;;;5012730;28;20558;-62
2024/01/25 04:25:10;;;;;;;34.45;5.90;;;5.80;99.90;;;;;;5006623;28;20037;-62
2024/01/25 04:27:38;;;;;;;35.30;5.55;;;5.80;99.90;;;;;;5008620;28;20064;-62
2024/01/25 04:30:05;;;;;;;36.65;5.85;;;5.70;99.90;;;;;;5009725;28;20037;-62
2024/01/25 04:32:30;;;;;;;33.13;6.40;;;5.70;99.90;;;;;;5011842;28;20069;-62
2024/01/25 04:34:56;;;;;;;34.08;5.63;;;5.70;99.90;;;;;;5012491;28;20528;-62
2024/01/25 04:37:22;;;;;;;35.75;6.30;;;5.70;99.90;;;;;;5012554;28;20520;-62
2024/01/25 04:39:48;;;;;;;32.97;5.07;;;5.70;99.90;;;;;;5011310;28;20100;-62
2024/01/25 04:42:14;;;;;;;26.92;5.13;;;5.70;99.90;;;;;;5013065;28;20516;-62
2024/01/25 04:44:39;;;;;;;37.83;5.45;;;5.70;99.90;;;;;;5008265;28;20387;-62
2024/01/25 04:47:05;;;;;;;40.95;6.97;;;5.70;99.90;;;;;;5011847;28;20034;-62
2024/01/25 04:49:31;;;;;;;32.70;5.40;;;5.70;99.90;;;;;;5013011;28;20033;-62
2024/01/25 04:51:56;;;;;;;31.88;5.90;;;5.70;99.90;;;;;;5012424;28;20503;-62
2024/01/25 04:54:22;;;;;;;29.65;4.82;;;5.60;99.90;;;;;;5012230;28;20376;-61
2024/01/25 04:56:48;;;;;;;28.27;5.38;;;5.60;99.90;;;;;;5011658;28;20029;-62
2024/01/25 04:59:13;;;;;;;29.50;5.40;;;5.60;99.90;;;;;;5007325;28;20399;-62
2024/01/25 05:01:39;;;;;;;39.67;5.85;;;5.60;99.90;;;;;;5010078;28;20516;-62
2024/01/25 05:04:05;;;;;;;36.58;5.60;;;5.50;99.90;;;;;;5012558;28;20052;-62
2024/01/25 05:06:30;;;;;;;38.83;5.50;;;5.50;99.90;;;;;;5008990;28;20124;-61
2024/01/25 05:08:56;;;;;;;39.33;6.15;;;5.60;99.90;;;;;;5008504;28;20486;-62
2024/01/25 05:11:22;;;;;;;31.33;5.30;;;5.50;99.90;;;;;;5005994;28;20034;-62
2024/01/25 05:13:47;;;;;;;34.67;6.45;;;5.50;99.90;;;;;;5006808;28;20069;-62
2024/01/25 05:16:13;;;;;;;35.47;5.05;;;5.50;99.90;;;;;;5009992;28;20030;-62
2024/01/25 05:18:39;;;;;;;40.13;5.85;;;5.50;99.90;;;;;;5006934;28;21435;-62
2024/01/25 05:21:05;;;;;;;28.77;5.18;;;5.50;99.90;;;;;;5005950;28;20048;-62
2024/01/25 05:23:30;;;;;;;35.90;5.85;;;5.40;99.90;;;;;;5010061;28;20394;-62
2024/01/25 05:25:56;;;;;;;31.35;5.43;;;5.40;99.90;;;;;;5011047;28;20045;-62
2024/01/25 05:28:21;;;;;;;32.85;5.00;;;5.30;99.90;;;;;;5011160;28;20038;-61
2024/01/25 05:30:47;;;;;;;31.85;5.47;;;5.30;99.90;;;;;;5009115;28;20068;-62
2024/01/25 05:33:13;;;;;;;25.85;5.07;;;5.20;99.90;;;;;;5010950;28;20042;-62
2024/01/25 05:35:39;;;;;;;33.00;5.03;;;5.20;99.90;;;;;;5011126;28;20502;-62
2024/01/25 05:38:05;;;;;;;30.60;5.07;;;5.20;99.90;;;;;;5010927;28;20042;-62
2024/01/25 05:40:31;;;;;;;34.50;6.07;;;5.10;99.90;;;;;;5006927;28;20363;-61
2024/01/25 05:42:56;;;;;;;29.88;5.80;;;5.10;99.90;;;;;;5011529;28;20391;-62
2024/01/25 05:45:23;;;;;;;41.92;5.90;;;5.10;99.90;;;;;;4998854;28;20180;-61
2024/01/25 05:47:49;;;;;;;37.17;6.35;;;5.10;99.90;;;;;;4999539;28;20054;-61
2024/01/25 05:50:14;;;;;;;27.10;5.45;;;5.10;99.90;;;;;;5000802;28;20099;-62
2024/01/25 05:52:40;;;;;;;32.80;5.05;;;5.10;99.90;;;;;;4997925;28;20140;-61
2024/01/25 05:55:06;;;;;;;29.67;5.78;;;5.10;99.90;;;;;;5008014;28;20040;-62
2024/01/25 05:57:34;;;;;;;27.90;5.43;;;5.10;99.90;;;;;;5011388;28;20037;-62
2024/01/25 06:00:00;;;;;;;27.00;5.25;;;5.10;99.90;;;;;;5007396;28;20054;-62
2024/01/25 06:02:26;;;;;;;35.53;6.07;;;5.00;99.90;;;;;;5007556;28;20045;-62
2024/01/25 06:04:51;;;;;;;38.67;5.95;;;5.00;99.90;;;;;;5009686;28;20486;-61
2024/01/25 06:07:17;;;;;;;28.15;5.80;;;5.00;99.90;;;;;;5011290;28;20037;-62
2024/01/25 06:09:43;;;;;;;30.63;5.60;;;5.00;99.90;;;;;;5010979;28;20049;-62
2024/01/25 06:12:08;;;;;;;35.47;5.72;;;5.00;99.90;;;;;;5010177;28;20050;-62
2024/01/25 06:14:34;;;;;;;30.33;5.70;;;5.00;99.90;;;;;;5010620;28;20036;-62
2024/01/25 06:17:00;;;;;;;36.03;6.47;;;5.00;99.90;;;;;;5011300;28;20040;-62
2024/01/25 06:19:25;;;;;;;40.58;6.80;;;5.00;99.90;;;;;;5009892;28;20042;-62
2024/01/25 06:21:51;;;;;;;33.80;5.32;;;5.00;99.90;;;;;;5007692;28;20509;-62
2024/01/25 06:24:17;;;;;;;25.25;4.78;;;5.00;99.90;;;;;;5010246;28;20042;-61
2024/01/25 06:26:42;;;;;;;35.08;5.57;;;4.90;99.90;;;;;;5010379;28;20042;-62
2024/01/25 06:29:08;;;;;;;34.78;5.22;;;5.00;99.90;;;;;;5010392;28;20528;-62
2024/01/25 06:31:41;;;;;;;37.75;5.30;;;5.00;99.90;;;;;;5010630;28;20126;-62
2024/01/25 06:34:07;;;;;;;36.17;6.45;;;4.90;99.90;;;;;;5008198;28;20533;-62
2024/01/25 06:36:33;;;;;;;41.17;6.03;;;4.90;99.90;;;;;;5009688;28;20038;-62
2024/01/25 06:38:58;;;;;;;36.00;5.60;;;4.90;99.90;;;;;;5000960;28;20042;-62
2024/01/25 06:41:24;;;;;;;33.17;5.20;;;4.90;99.90;;;;;;5007396;28;20458;-61
2024/01/25 06:43:50;;;;;;;32.42;5.90;;;4.90;99.90;;;;;;5010937;28;20041;-62
2024/01/25 06:46:16;;;;;;;34.03;5.78;;;4.90;99.90;;;;;;5009630;28;20038;-61
2024/01/25 06:48:41;;;;;;;38.75;6.43;;;4.80;99.90;;;;;;5010361;28;20107;-61
2024/01/25 06:51:07;;;;;;;32.47;5.60;;;4.80;99.90;;;;;;5010308;28;20038;-62
2024/01/25 06:53:33;;;;;;;41.95;5.97;;;4.80;99.90;;;;;;5009851;28;20030;-62
2024/01/25 06:55:58;;;;;;;32.45;5.72;;;4.90;99.90;;;;;;5005430;28;20041;-62
2024/01/25 06:58:24;;;;;;;36.58;5.90;;;4.80;99.90;;;;;;5008873;28;20041;-62
2024/01/25 07:00:50;;;;;;;29.30;5.22;;;4.80;99.90;;;;;;5010275;28;20037;-61
2024/01/25 07:03:15;;;;;;;34.72;5.47;;;4.80;99.90;;;;;;5007365;28;20443;-62
2024/01/25 07:05:41;;;;;;;32.15;5.55;;;4.80;99.90;;;;;;5010199;28;20095;-62
2024/01/25 07:08:12;;;;;;;33.15;5.65;;;4.80;99.90;;;;;;5010445;28;20060;-61
2024/01/25 07:10:38;;;;;;;35.90;6.03;;;4.80;99.90;;;;;;5007070;28;20050;-61
2024/01/25 07:13:04;;;;;;;36.72;5.68;;;4.80;99.90;;;;;;5009171;28;20387;-61
2024/01/25 07:15:29;;;;;;;34.05;5.43;;;4.70;99.90;;;;;;5008597;28;20034;-61
2024/01/25 07:17:55;;;;;;;39.17;6.30;;;4.80;99.90;;;;;;5010469;28;20506;-62
2024/01/25 07:20:21;;;;;;;31.83;5.22;;;4.70;99.90;;;;;;5006743;28;20044;-61
2024/01/25 07:22:46;;;;;;;32.97;5.13;;;4.80;99.90;;;;;;5009778;28;20057;-61
2024/01/25 07:25:12;;;;;;;33.90;6.70;;;4.70;99.90;;;;;;5007489;28;20038;-62
2024/01/25 07:27:37;;;;;;;37.45;5.65;;;4.70;99.90;;;;;;5008648;28;20049;-62
2024/01/25 07:30:03;;;;;;;37.65;5.97;;;4.80;99.90;;;;;;5007782;28;20453;-61
2024/01/25 07:32:29;;;;;;;29.08;5.32;;;4.80;99.90;;;;;;5011492;28;20099;-62
2024/01/25 07:34:55;;;;;;;33.78;6.30;;;4.70;99.90;;;;;;5013659;28;20042;-62
2024/01/25 07:37:20;;;;;;;25.45;5.35;;;4.70;99.90;;;;;;5013065;28;20038;-61
2024/01/25 07:39:46;;;;;;;32.13;5.40;;;4.70;99.90;;;;;;5013586;28;20045;-62
2024/01/25 07:42:12;;;;;;;37.47;5.78;;;4.70;99.90;;;;;;5007150;28;20626;-62
2024/01/25 07:44:38;;;;;;;26.60;5.40;;;4.70;99.90;;;;;;5009549;28;20128;-61
2024/01/25 07:47:04;;;;;;;36.58;5.45;;;4.70;99.90;;;;;;4999602;28;20034;-61
2024/01/25 07:49:30;;;;;;;38.97;6.40;;;4.70;99.90;;;;;;5003591;28;20087;-61
2024/01/25 07:51:58;;;;;;;30.27;5.60;;;4.70;99.90;;;;;;5010301;28;20561;-61
2024/01/25 07:54:24;;;;;;;36.13;6.97;;;4.70;99.90;;;;;;5009969;28;20538;-61
2024/01/25 07:56:50;;;;;;;31.48;6.28;;;4.70;99.90;;;;;;5010883;28;20044;-61
2024/01/25 07:59:15;;;;;;;34.05;6.03;;;4.70;99.90;;;;;;5013118;28;20482;-61
2024/01/25 08:01:41;;;;;;;30.73;5.50;;;4.70;99.90;;;;;;5008494;28;20498;-62
2024/01/25 08:04:07;;;;;;;40.97;6.30;;;4.80;99.90;;;;;;5012243;28;20049;-61
2024/01/25 08:06:32;;;;;;;30.90;5.82;;;4.80;99.90;;;;;;5010678;28;20461;-61
2024/01/25 08:08:58;;;;;;;28.80;6.47;;;4.80;99.90;;;;;;5011200;28;20038;-61
2024/01/25 08:11:24;;;;;;;27.92;5.30;;;4.80;99.90;;;;;;5013256;28;20038;-61
2024/01/25 08:13:50;;;;;;;36.00;5.95;;;4.80;99.90;;;;;;5008029;28;20041;-61
2024/01/25 08:16:19;;;;;;;39.45;6.80;;;4.90;99.90;;;;;;5008551;28;20034;-61
2024/01/25 08:18:48;;;;;;;36.30;6.43;;;4.90;99.90;;;;;;5004785;28;21407;-61
2024/01/25 08:21:14;;;;;;;32.03;5.82;;;4.90;99.90;;;;;;5002516;28;20034;-61
2024/01/25 08:23:40;;;;;;;34.95;6.63;;;5.00;99.90;;;;;;5004337;28;20056;-62
2024/01/25 08:26:09;;;;;;;28.90;6.38;;;5.00;99.90;;;;;;5006781;28;20038;-61
2024/01/25 08:28:36;;;;;;;42.70;7.50;;;5.00;99.90;;;;;;5001986;28;20128;-61
2024/01/25 08:31:02;;;;;;;28.92;6.57;;;5.00;99.90;;;;;;5001744;28;20042;-61
2024/01/25 08:33:28;;;;;;;37.13;6.53;;;5.10;99.90;;;;;;4994388;28;20048;-61
2024/01/25 08:35:53;;;;;;;36.35;5.97;;;5.10;99.90;;;;;;4997752;28;20706;-61
2024/01/25 08:38:19;;;;;;;36.17;6.28;;;5.10;99.90;;;;;;4996312;28;20402;-62
2024/01/25 08:40:45;;;;;;;35.50;6.25;;;5.10;99.90;;;;;;5002437;28;20042;-61
2024/01/25 08:43:10;;;;;;;41.30;7.05;;;5.10;99.90;;;;;;5006352;28;20042;-61
2024/01/25 08:45:37;;;;;;;33.35;6.50;;;5.20;99.90;;;;;;5005209;28;20045;-62
2024/01/25 08:48:02;;;;;;;38.75;6.93;;;5.10;99.90;;;;;;5007297;28;20042;-62
2024/01/25 08:50:28;;;;;;;39.47;7.07;;;5.20;99.90;;;;;;5006381;28;20112;-62
2024/01/25 08:52:54;;;;;;;38.05;6.68;;;5.20;99.90;;;;;;5006657;28;20658;-62
2024/01/25 08:55:19;;;;;;;38.53;6.78;;;5.20;99.90;;;;;;5006326;28;20095;-62
2024/01/25 08:57:45;;;;;;;42.28;6.70;;;5.20;99.90;;;;;;4988471;28;20350;-61
2024/01/25 09:00:11;;;;;;;39.28;6.47;;;5.30;99.90;;;;;;5007618;28;20034;-62
2024/01/25 09:02:38;;;;;;;35.85;6.60;;;5.30;99.90;;;;;;5000921;28;20038;-61
2024/01/25 09:05:05;;;;;;;36.60;6.28;;;5.30;99.90;;;;;;4993491;28;20095;-61
2024/01/25 09:07:31;;;;;;;38.10;6.32;;;5.30;99.90;;;;;;5007023;28;20449;-61
2024/01/25 09:09:57;;;;;;;34.90;5.97;;;5.30;99.90;;;;;;4986301;28;20042;-61
2024/01/25 09:12:23;;;;;;;40.03;6.82;;;5.40;99.90;;;;;;5003719;28;20403;-61
2024/01/25 09:14:48;;;;;;;37.83;6.82;;;5.40;99.90;;;;;;5001035;28;20129;-61
2024/01/25 09:17:15;;;;;;;40.88;6.82;;;5.40;99.90;;;;;;5002503;28;20049;-61
2024/01/25 09:19:41;;;;;;;37.70;6.38;;;5.40;99.90;;;;;;5003376;28;20050;-61
2024/01/25 09:22:07;;;;;;;40.38;6.82;;;5.50;99.90;;;;;;5004339;28;20050;-61
2024/01/25 09:24:35;;;;;;;31.02;7.15;;;5.60;99.90;;;;;;5002203;28;20148;-60
2024/01/25 09:27:02;;;;;;;41.22;6.85;;;5.60;99.90;;;;;;4997213;28;20082;-59
2024/01/25 09:29:28;;;;;;;34.80;6.72;;;5.70;99.90;;;;;;5001609;28;20120;-63
2024/01/25 09:31:54;;;;;;;35.40;7.53;;;5.80;99.90;;;;;;5003462;28;20477;-59
2024/01/25 09:34:21;;;;;;;37.38;7.50;;;5.80;99.90;;;;;;5004556;28;20121;-60
2024/01/25 09:36:46;;;;;;;33.58;6.60;;;5.90;99.90;;;;;;5005657;28;20037;-61
2024/01/25 09:39:14;;;;;;;39.10;6.53;;;5.90;99.90;;;;;;5005941;28;20042;-60
2024/01/25 09:41:40;;;;;;;30.98;6.82;;;5.90;99.90;;;;;;5003892;28;20042;-63
2024/01/25 09:44:08;;;;;;;33.15;6.53;;;6.00;99.90;;;;;;5002960;28;20042;-62
2024/01/25 09:46:35;;;;;;;32.85;6.05;;;6.00;99.90;;;;;;5003298;28;20038;-62
2024/01/25 09:49:01;;;;;;;45.40;7.72;;;6.10;99.90;;;;;;5010352;28;20046;-63
2024/01/25 09:51:32;;;;;;;47.33;7.47;;;6.10;99.90;;;;;;5010919;28;20204;-62
2024/01/25 09:53:59;;;;;;;32.80;6.35;;;6.10;99.90;;;;;;5005660;28;20046;-62
2024/01/25 09:56:26;;;;;;;41.85;6.40;;;6.10;99.90;;;;;;5007710;28;20026;-62
2024/01/25 09:58:53;;;;;;;30.65;6.20;;;6.10;99.90;;;;;;5004957;28;20074;-62
2024/01/25 10:01:18;;;;;;;44.15;7.43;;;6.10;99.90;;;;;;5008543;28;20108;-62
2024/01/25 10:03:46;;;;;;;40.17;7.28;;;6.20;99.90;;;;;;5004567;28;20455;-62
2024/01/25 10:06:12;;;;;;;35.45;6.53;;;6.20;99.90;;;;;;5009863;28;20417;-62
2024/01/25 10:08:38;;;;;;;42.15;7.00;;;6.20;99.90;;;;;;5008100;28;20037;-62
2024/01/25 10:11:05;;;;;;;36.50;7.03;;;6.20;99.90;;;;;;5011227;28;20045;-63
2024/01/25 10:13:32;;;;;;;37.67;7.38;;;6.20;99.90;;;;;;5005244;28;20476;-62
2024/01/25 10:15:58;;;;;;;39.38;6.43;;;6.30;99.90;;;;;;5005267;28;20037;-62
2024/01/25 10:18:27;;;;;;;34.22;7.03;;;6.30;99.90;;;;;;5011205;28;20073;-62
2024/01/25 10:20:54;;;;;;;39.03;6.72;;;6.30;99.90;;;;;;5008154;28;20037;-62
2024/01/25 10:23:20;;;;;;;46.25;7.57;;;6.40;99.90;;;;;;5010881;28;20449;-62
2024/01/25 10:25:46;;;;;;;30.98;7.07;;;6.50;99.90;;;;;;5003353;28;20405;-62
2024/01/25 10:28:12;;;;;;;36.35;7.70;;;6.50;99.90;;;;;;5009436;28;20038;-62
2024/01/25 10:30:38;;;;;;;34.17;7.80;;;6.50;99.90;;;;;;5010166;28;20077;-62
2024/01/25 10:33:04;;;;;;;46.25;7.32;;;6.50;99.90;;;;;;5010606;28;20125;-62
2024/01/25 10:35:31;;;;;;;38.20;7.72;;;6.50;99.90;;;;;;5009830;28;20461;-62
2024/01/25 10:37:57;;;;;;;39.90;7.82;;;6.60;99.90;;;;;;5009493;28;20445;-63
2024/01/25 10:40:24;;;;;;;40.83;7.22;;;6.60;99.90;;;;;;5010558;28;20030;-62
2024/01/25 10:42:50;;;;;;;40.50;7.47;;;6.70;99.90;;;;;;5010053;28;20042;-63
2024/01/25 10:45:16;;;;;;;41.25;8.15;;;6.70;99.90;;;;;;5008811;28;20496;-63
2024/01/25 10:47:42;;;;;;;43.08;7.47;;;6.70;99.90;;;;;;5006753;28;20039;-62
2024/01/25 10:50:09;;;;;;;32.42;6.53;;;6.70;99.90;;;;;;5007870;28;20509;-62
2024/01/25 10:52:36;;;;;;;42.95;7.40;;;6.70;99.90;;;;;;5004619;28;20078;-62
2024/01/25 10:55:04;;;;;;;38.83;7.00;;;6.70;99.90;;;;;;5006399;28;20102;-63
2024/01/25 10:57:43;;;;;;;38.15;7.32;;;6.70;99.90;;;;;;5008958;28;20042;-62
2024/01/25 11:00:12;;;;;;;43.70;7.60;;;6.80;99.90;;;;;;5001502;28;20045;-63
2024/01/25 11:02:39;;;;;;;30.63;6.85;;;6.80;99.90;;;;;;5006172;28;20049;-62
2024/01/25 11:05:13;;;;;;;37.28;7.40;;;6.90;99.90;;;;;;5004868;28;20429;-62
2024/01/25 11:07:47;;;;;;;39.10;7.13;;;7.00;99.90;;;;;;5011496;28;20076;-62
2024/01/25 11:10:20;;;;;;;37.17;7.70;;;7.10;99.90;;;;;;4994180;28;20473;-63
2024/01/25 11:12:56;;;;;;;38.67;7.35;;;7.10;99.90;;;;;;5013639;28;20049;-63
2024/01/25 11:15:25;;;;;;;33.53;7.22;;;7.20;99.90;;;;;;5012902;28;20053;-62
2024/01/25 11:17:55;;;;;;;39.63;7.13;;;7.20;99.90;;;;;;5014854;28;20049;-63
2024/01/25 11:20:23;;;;;;;36.20;7.35;;;7.30;99.90;;;;;;5013968;28;20080;-62
2024/01/25 11:22:48;;;;;;;34.97;7.13;;;7.40;99.90;;;;;;5014627;28;20042;-63
2024/01/25 11:25:20;;;;;;;36.65;7.22;;;7.50;99.90;;;;;;5014069;28;20418;-62
2024/01/25 11:27:46;;;;;;;43.83;7.93;;;7.60;99.90;;;;;;5013217;28;20054;-62
2024/01/25 11:30:13;;;;;;;34.97;7.25;;;7.60;99.90;;;;;;5013660;28;20042;-63
2024/01/25 11:32:39;;;;;;;38.65;7.47;;;7.70;99.90;;;;;;5011946;28;20048;-63
2024/01/25 11:35:08;;;;;;;42.13;8.52;;;7.70;99.90;;;;;;5011728;28;20499;-63
2024/01/25 11:37:34;;;;;;;33.97;6.68;;;7.70;99.90;;;;;;5014333;28;20049;-63
2024/01/25 11:39:59;;;;;;;35.75;6.68;;;7.80;99.90;;;;;;5014514;28;20406;-63
2024/01/25 11:42:25;;;;;;;38.78;7.15;;;7.80;99.90;;;;;;5013153;28;20037;-63
2024/01/25 11:44:51;;;;;;;45.88;7.28;;;7.90;99.90;;;;;;5013941;28;20072;-63
2024/01/25 11:47:16;;;;;;;30.98;6.75;;;7.90;99.90;;;;;;5013902;28;20054;-63
2024/01/25 11:49:42;;;;;;;36.90;7.30;;;8.00;99.90;;;;;;5011834;28;20042;-63
2024/01/25 11:52:08;;;;;;;38.85;7.15;;;8.00;99.90;;;;;;5011527;28;20037;-62
2024/01/25 11:54:35;;;;;;;40.03;7.70;;;8.00;99.90;;;;;;5010629;28;20048;-63
2024/01/25 11:57:01;;;;;;;31.98;6.70;;;8.10;99.90;;;;;;5012467;28;20046;-62
2024/01/25 11:59:26;;;;;;;31.67;6.82;;;8.10;99.90;;;;;;5010659;28;20143;-63
2024/01/25 12:01:52;;;;;;;33.40;7.40;;;8.20;99.90;;;;;;5008999;28;20069;-62
2024/01/25 12:04:18;;;;;;;39.80;7.75;;;8.10;99.90;;;;;;5011723;28;20048;-63
2024/01/25 12:06:44;;;;;;;30.17;6.57;;;8.10;99.90;;;;;;5013435;28;20038;-63
2024/01/25 12:09:10;;;;;;;38.83;7.35;;;8.00;99.90;;;;;;5013485;28;20044;-63
2024/01/25 12:11:36;;;;;;;40.25;7.20;;;8.00;99.90;;;;;;5012632;28;20092;-63
2024/01/25 12:14:02;;;;;;;39.83;8.00;;;8.00;99.90;;;;;;5013525;28;20038;-63
2024/01/25 12:16:28;;;;;;;30.45;6.68;;;8.00;99.90;;;;;;5012365;28;20089;-63
2024/01/25 12:18:54;;;;;;;35.17;7.13;;;8.00;99.90;;;;;;5011544;28;20481;-63
2024/01/25 12:21:20;;;;;;;30.38;6.70;;;7.90;99.90;;;;;;5008349;28;20034;-63
2024/01/25 12:23:46;;;;;;;34.28;7.30;;;8.00;99.90;;;;;;5012182;28;20045;-62
2024/01/25 12:26:11;;;;;;;30.73;7.18;;;8.00;99.90;;;;;;5012647;28;20429;-63
2024/01/25 12:28:37;;;;;;;36.13;7.57;;;8.00;99.90;;;;;;5013546;28;20042;-63
2024/01/25 12:31:05;;;;;;;31.23;7.18;;;8.00;99.90;;;;;;5009186;28;20047;-63
2024/01/25 12:33:32;;;;;;;37.28;6.88;;;8.00;99.90;;;;;;5012691;28;20046;-63
2024/01/25 12:35:58;;;;;;;35.13;6.60;;;8.10;99.90;;;;;;5007942;28;20069;-63
2024/01/25 12:38:25;;;;;;;41.17;7.90;;;8.20;99.90;;;;;;5009161;28;20045;-63
2024/01/25 12:40:52;;;;;;;33.05;6.97;;;8.20;99.90;;;;;;5010291;28;20379;-63
2024/01/25 12:43:18;;;;;;;35.47;7.22;;;8.20;99.90;;;;;;5010959;28;20034;-62